sensor_id;sensor_type;location;lat;lon;timestamp;pressure;altitude;pressure_sealevel;temperature;humidity
33153;BME280;19509;43.862;26.176;2023-02-02T00:01:46;100690.84;;;2.29;75.91
33153;BME280;19509;43.862;26.176;2023-02-02T00:04:18;100698.28;;;2.26;76.25
33153;BME280;19509;43.862;26.176;2023-02-02T00:06:44;100696.63;;;2.25;76.62
33153;BME280;19509;43.862;26.176;2023-02-02T00:09:12;100698.28;;;2.26;76.57
33153;BME280;19509;43.862;26.176;2023-02-02T00:11:37;100707.38;;;2.23;76.16
33153;BME280;19509;43.862;26.176;2023-02-02T00:14:03;100697.06;;;2.20;76.80
33153;BME280;19509;43.862;26.176;2023-02-02T00:18:55;100702.69;;;2.35;75.93
33153;BME280;19509;43.862;26.176;2023-02-02T00:21:22;100694.53;;;2.36;76.14
33153;BME280;19509;43.862;26.176;2023-02-02T00:23:47;100708.34;;;2.40;75.91
33153;BME280;19509;43.862;26.176;2023-02-02T00:26:13;100700.06;;;2.43;75.76
33153;BME280;19509;43.862;26.176;2023-02-02T00:28:39;100700.25;;;2.42;75.84
33153;BME280;19509;43.862;26.176;2023-02-02T00:31:04;100700.06;;;2.43;76.24
33153;BME280;19509;43.862;26.176;2023-02-02T00:33:29;100698.84;;;2.37;76.15
33153;BME280;19509;43.862;26.176;2023-02-02T00:35:55;100697.72;;;2.40;76.42
33153;BME280;19509;43.862;26.176;2023-02-02T00:38:20;100710.13;;;2.31;76.19
33153;BME280;19509;43.862;26.176;2023-02-02T00:40:46;100707.25;;;2.25;77.07
33153;BME280;19509;43.862;26.176;2023-02-02T00:43:11;100707.25;;;2.25;76.66
33153;BME280;19509;43.862;26.176;2023-02-02T00:45:37;100698.22;;;2.18;76.44
33153;BME280;19509;43.862;26.176;2023-02-02T00:48:03;100697.22;;;2.19;76.61
33153;BME280;19509;43.862;26.176;2023-02-02T00:50:28;100703.97;;;2.13;77.56
33153;BME280;19509;43.862;26.176;2023-02-02T00:52:54;100700.25;;;2.06;77.14
33153;BME280;19509;43.862;26.176;2023-02-02T00:55:19;100697.78;;;2.04;77.27
33153;BME280;19509;43.862;26.176;2023-02-02T00:57:46;100692.75;;;2.01;77.73
33153;BME280;19509;43.862;26.176;2023-02-02T01:00:17;100695.94;;;2.05;77.86
33153;BME280;19509;43.862;26.176;2023-02-02T01:02:43;100698.72;;;2.03;77.74
33153;BME280;19509;43.862;26.176;2023-02-02T01:05:10;100696.03;;;1.95;78.31
33153;BME280;19509;43.862;26.176;2023-02-02T01:07:36;100691.84;;;1.93;77.91
33153;BME280;19509;43.862;26.176;2023-02-02T01:10:02;100693.38;;;1.95;78.04
33153;BME280;19509;43.862;26.176;2023-02-02T01:12:28;100689.06;;;1.94;78.25
33153;BME280;19509;43.862;26.176;2023-02-02T01:14:53;100692.84;;;1.92;78.28
33153;BME280;19509;43.862;26.176;2023-02-02T01:17:19;100684.66;;;1.85;79.13
33153;BME280;19509;43.862;26.176;2023-02-02T01:19:44;100690.56;;;1.79;78.77
33153;BME280;19509;43.862;26.176;2023-02-02T01:22:09;100687.75;;;1.80;78.90
33153;BME280;19509;43.862;26.176;2023-02-02T01:24:35;100679.94;;;1.79;78.68
33153;BME280;19509;43.862;26.176;2023-02-02T01:27:00;100685.63;;;1.84;78.75
33153;BME280;19509;43.862;26.176;2023-02-02T01:29:26;100670.97;;;1.80;78.63
33153;BME280;19509;43.862;26.176;2023-02-02T01:31:51;100673.41;;;1.73;79.04
33153;BME280;19509;43.862;26.176;2023-02-02T01:34:17;100673.25;;;1.75;78.73
33153;BME280;19509;43.862;26.176;2023-02-02T01:36:43;100677.97;;;1.81;79.11
33153;BME280;19509;43.862;26.176;2023-02-02T01:39:08;100666.06;;;1.85;78.79
33153;BME280;19509;43.862;26.176;2023-02-02T01:41:34;100666.00;;;1.77;79.26
33153;BME280;19509;43.862;26.176;2023-02-02T01:44:02;100666.53;;;1.80;79.10
33153;BME280;19509;43.862;26.176;2023-02-02T01:46:31;100667.78;;;1.76;79.84
33153;BME280;19509;43.862;26.176;2023-02-02T01:49:13;100662.50;;;1.76;79.65
33153;BME280;19509;43.862;26.176;2023-02-02T01:51:40;100654.41;;;1.78;79.89
33153;BME280;19509;43.862;26.176;2023-02-02T01:54:10;100655.38;;;1.77;79.41
33153;BME280;19509;43.862;26.176;2023-02-02T01:56:42;100658.19;;;1.75;79.88
33153;BME280;19509;43.862;26.176;2023-02-02T01:59:09;100660.59;;;1.69;80.75
33153;BME280;19509;43.862;26.176;2023-02-02T02:01:36;100659.38;;;1.63;80.69
33153;BME280;19509;43.862;26.176;2023-02-02T02:04:01;100670.38;;;1.68;81.19
33153;BME280;19509;43.862;26.176;2023-02-02T02:06:27;100675.69;;;1.68;81.32
33153;BME280;19509;43.862;26.176;2023-02-02T02:08:59;100667.72;;;1.68;81.41
33153;BME280;19509;43.862;26.176;2023-02-02T02:11:27;100668.03;;;1.65;81.66
33153;BME280;19509;43.862;26.176;2023-02-02T02:13:54;100679.94;;;1.61;82.32
33153;BME280;19509;43.862;26.176;2023-02-02T02:29:01;100684.06;;;1.46;83.85
33153;BME280;19509;43.862;26.176;2023-02-02T02:37:49;100691.34;;;1.44;84.30
33153;BME280;19509;43.862;26.176;2023-02-02T02:42:54;100691.78;;;1.39;84.61
33153;BME280;19509;43.862;26.176;2023-02-02T02:45:22;100689.28;;;1.37;84.93
33153;BME280;19509;43.862;26.176;2023-02-02T02:47:49;100683.28;;;1.35;84.67
33153;BME280;19509;43.862;26.176;2023-02-02T02:50:15;100686.78;;;1.36;84.66
33153;BME280;19509;43.862;26.176;2023-02-02T02:52:41;100686.38;;;1.31;84.89
33153;BME280;19509;43.862;26.176;2023-02-02T02:55:09;100672.59;;;1.27;85.16
33153;BME280;19509;43.862;26.176;2023-02-02T03:00:48;100688.75;;;1.34;84.60
33153;BME280;19509;43.862;26.176;2023-02-02T03:03:35;100682.16;;;1.38;84.37
33153;BME280;19509;43.862;26.176;2023-02-02T03:09:04;100683.81;;;1.39;84.01
33153;BME280;19509;43.862;26.176;2023-02-02T03:11:33;100688.75;;;1.34;84.84
33153;BME280;19509;43.862;26.176;2023-02-02T03:14:00;100687.31;;;1.39;83.96
33153;BME280;19509;43.862;26.176;2023-02-02T03:16:25;100687.88;;;1.43;83.58
33153;BME280;19509;43.862;26.176;2023-02-02T03:18:51;100694.81;;;1.44;84.00
33153;BME280;19509;43.862;26.176;2023-02-02T03:21:16;100703.31;;;1.48;83.74
33153;BME280;19509;43.862;26.176;2023-02-02T03:23:42;100693.16;;;1.43;83.71
33153;BME280;19509;43.862;26.176;2023-02-02T03:26:07;100700.84;;;1.46;83.75
33153;BME280;19509;43.862;26.176;2023-02-02T03:28:33;100698.47;;;1.43;83.66
33153;BME280;19509;43.862;26.176;2023-02-02T03:31:00;100695.56;;;1.36;84.19
33153;BME280;19509;43.862;26.176;2023-02-02T03:33:26;100690.84;;;1.30;84.05
33153;BME280;19509;43.862;26.176;2023-02-02T03:35:51;100702.69;;;1.36;84.45
33153;BME280;19509;43.862;26.176;2023-02-02T03:38:17;100702.00;;;1.34;84.45
33153;BME280;19509;43.862;26.176;2023-02-02T03:40:43;100708.88;;;1.27;84.22
33153;BME280;19509;43.862;26.176;2023-02-02T03:43:08;100702.50;;;1.20;84.92
33153;BME280;19509;43.862;26.176;2023-02-02T03:45:35;100720.59;;;1.24;84.34
33153;BME280;19509;43.862;26.176;2023-02-02T03:48:04;100717.41;;;1.21;84.48
33153;BME280;19509;43.862;26.176;2023-02-02T03:50:30;100720.50;;;1.16;85.19
33153;BME280;19509;43.862;26.176;2023-02-02T03:52:56;100726.38;;;1.10;85.47
33153;BME280;19509;43.862;26.176;2023-02-02T03:55:21;100722.66;;;1.03;85.28
33153;BME280;19509;43.862;26.176;2023-02-02T03:57:47;100723.47;;;1.03;85.24
33153;BME280;19509;43.862;26.176;2023-02-02T04:00:12;100731.56;;;1.02;85.22
33153;BME280;19509;43.862;26.176;2023-02-02T04:02:38;100730.59;;;1.03;85.59
33153;BME280;19509;43.862;26.176;2023-02-02T04:05:04;100732.09;;;1.05;84.97
33153;BME280;19509;43.862;26.176;2023-02-02T04:07:30;100735.06;;;1.02;85.05
33153;BME280;19509;43.862;26.176;2023-02-02T04:09:55;100729.91;;;1.01;85.57
33153;BME280;19509;43.862;26.176;2023-02-02T04:12:21;100729.63;;;1.04;84.99
33153;BME280;19509;43.862;26.176;2023-02-02T04:14:46;100732.09;;;1.05;85.34
33153;BME280;19509;43.862;26.176;2023-02-02T04:17:11;100728.34;;;1.08;85.11
33153;BME280;19509;43.862;26.176;2023-02-02T04:19:37;100720.53;;;1.06;84.81
33153;BME280;19509;43.862;26.176;2023-02-02T04:22:02;100717.19;;;1.04;84.87
33153;BME280;19509;43.862;26.176;2023-02-02T04:24:28;100711.47;;;1.09;84.88
33153;BME280;19509;43.862;26.176;2023-02-02T04:26:53;100707.69;;;1.11;84.95
33153;BME280;19509;43.862;26.176;2023-02-02T04:29:18;100706.41;;;1.15;84.60
33153;BME280;19509;43.862;26.176;2023-02-02T04:31:44;100701.09;;;1.15;84.43
33153;BME280;19509;43.862;26.176;2023-02-02T04:34:09;100713.22;;;1.18;84.58
33153;BME280;19509;43.862;26.176;2023-02-02T04:36:35;100702.34;;;1.21;84.22
33153;BME280;19509;43.862;26.176;2023-02-02T04:39:00;100710.53;;;1.28;84.06
33153;BME280;19509;43.862;26.176;2023-02-02T04:41:26;100707.06;;;1.27;83.82
33153;BME280;19509;43.862;26.176;2023-02-02T04:43:51;100719.03;;;1.31;83.62
33153;BME280;19509;43.862;26.176;2023-02-02T04:46:17;100721.56;;;1.33;83.47
33153;BME280;19509;43.862;26.176;2023-02-02T04:48:42;100718.28;;;1.39;83.06
33153;BME280;19509;43.862;26.176;2023-02-02T04:51:11;100715.97;;;1.36;83.17
33153;BME280;19509;43.862;26.176;2023-02-02T04:53:38;100714.28;;;1.35;83.36
33153;BME280;19509;43.862;26.176;2023-02-02T04:56:10;100725.94;;;1.42;82.70
33153;BME280;19509;43.862;26.176;2023-02-02T04:58:36;100722.75;;;1.38;83.24
33153;BME280;19509;43.862;26.176;2023-02-02T05:01:08;100718.16;;;1.40;82.88
33153;BME280;19509;43.862;26.176;2023-02-02T05:03:33;100725.66;;;1.45;83.01
33153;BME280;19509;43.862;26.176;2023-02-02T05:06:03;100736.97;;;1.47;82.96
33153;BME280;19509;43.862;26.176;2023-02-02T05:08:28;100741.97;;;1.50;82.53
33153;BME280;19509;43.862;26.176;2023-02-02T05:10:54;100747.28;;;1.50;82.29
33153;BME280;19509;43.862;26.176;2023-02-02T05:13:19;100741.69;;;1.53;82.67
33153;BME280;19509;43.862;26.176;2023-02-02T05:15:44;100740.28;;;1.49;82.21
33153;BME280;19509;43.862;26.176;2023-02-02T05:18:10;100752.72;;;1.49;82.24
33153;BME280;19509;43.862;26.176;2023-02-02T05:20:35;100748.69;;;1.45;82.61
33153;BME280;19509;43.862;26.176;2023-02-02T05:23:01;100749.25;;;1.48;82.67
33153;BME280;19509;43.862;26.176;2023-02-02T05:25:26;100747.56;;;1.47;82.86
33153;BME280;19509;43.862;26.176;2023-02-02T05:27:52;100750.66;;;1.42;82.67
33153;BME280;19509;43.862;26.176;2023-02-02T05:30:17;100748.25;;;1.49;82.37
33153;BME280;19509;43.862;26.176;2023-02-02T05:32:43;100752.88;;;1.47;82.46
33153;BME280;19509;43.862;26.176;2023-02-02T05:35:08;100756.19;;;1.49;82.19
33153;BME280;19509;43.862;26.176;2023-02-02T05:37:34;100757.06;;;1.50;82.42
33153;BME280;19509;43.862;26.176;2023-02-02T05:39:59;100756.91;;;1.51;81.95
33153;BME280;19509;43.862;26.176;2023-02-02T05:42:25;100754.41;;;1.50;82.07
33153;BME280;19509;43.862;26.176;2023-02-02T05:44:50;100762.78;;;1.45;82.21
33153;BME280;19509;43.862;26.176;2023-02-02T05:47:15;100754.78;;;1.55;82.54
33153;BME280;19509;43.862;26.176;2023-02-02T05:49:41;100764.94;;;1.59;82.09
33153;BME280;19509;43.862;26.176;2023-02-02T05:52:06;100764.34;;;1.65;81.65
33153;BME280;19509;43.862;26.176;2023-02-02T05:54:33;100762.72;;;1.82;81.09
33153;BME280;19509;43.862;26.176;2023-02-02T05:56:58;100771.38;;;1.84;80.96
33153;BME280;19509;43.862;26.176;2023-02-02T05:59:25;100772.28;;;1.75;80.84
33153;BME280;19509;43.862;26.176;2023-02-02T06:01:51;100778.56;;;1.74;80.85
33153;BME280;19509;43.862;26.176;2023-02-02T06:04:17;100773.56;;;1.71;81.30
33153;BME280;19509;43.862;26.176;2023-02-02T06:06:42;100766.06;;;1.67;81.14
33153;BME280;19509;43.862;26.176;2023-02-02T06:09:08;100779.41;;;1.75;81.24
33153;BME280;19509;43.862;26.176;2023-02-02T06:11:34;100772.97;;;1.77;80.99
33153;BME280;19509;43.862;26.176;2023-02-02T06:13:59;100765.13;;;1.76;81.17
33153;BME280;19509;43.862;26.176;2023-02-02T06:16:25;100776.69;;;1.84;81.21
33153;BME280;19509;43.862;26.176;2023-02-02T06:18:51;100777.91;;;1.90;80.83
33153;BME280;19509;43.862;26.176;2023-02-02T06:21:17;100773.88;;;1.86;80.70
33153;BME280;19509;43.862;26.176;2023-02-02T06:23:44;100778.44;;;1.94;80.23
33153;BME280;19509;43.862;26.176;2023-02-02T06:26:12;100778.00;;;1.98;80.51
33153;BME280;19509;43.862;26.176;2023-02-02T06:28:38;100783.69;;;2.03;79.78
33153;BME280;19509;43.862;26.176;2023-02-02T06:31:05;100773.06;;;2.03;79.84
33153;BME280;19509;43.862;26.176;2023-02-02T06:33:30;100783.19;;;2.18;79.66
33153;BME280;19509;43.862;26.176;2023-02-02T06:36:00;100764.50;;;2.09;79.62
33153;BME280;19509;43.862;26.176;2023-02-02T06:38:26;100779.06;;;2.23;79.32
33153;BME280;19509;43.862;26.176;2023-02-02T06:40:51;100788.09;;;2.30;79.14
33153;BME280;19509;43.862;26.176;2023-02-02T06:43:16;100785.44;;;2.30;79.29
33153;BME280;19509;43.862;26.176;2023-02-02T06:45:43;100779.53;;;2.36;79.46
33153;BME280;19509;43.862;26.176;2023-02-02T06:48:08;100778.53;;;2.37;78.63
33153;BME280;19509;43.862;26.176;2023-02-02T06:50:37;100770.66;;;2.46;79.15
33153;BME280;19509;43.862;26.176;2023-02-02T06:53:03;100760.69;;;2.48;78.68
33153;BME280;19509;43.862;26.176;2023-02-02T06:55:29;100764.88;;;2.50;78.95
33153;BME280;19509;43.862;26.176;2023-02-02T06:57:56;100756.59;;;2.53;78.74
33153;BME280;19509;43.862;26.176;2023-02-02T07:00:22;100763.44;;;2.56;78.46
33153;BME280;19509;43.862;26.176;2023-02-02T07:02:47;100761.78;;;2.55;78.70
33153;BME280;19509;43.862;26.176;2023-02-02T07:05:13;100753.81;;;2.55;78.80
33153;BME280;19509;43.862;26.176;2023-02-02T07:07:38;100757.81;;;2.59;78.53
33153;BME280;19509;43.862;26.176;2023-02-02T07:10:04;100763.88;;;2.51;79.06
33153;BME280;19509;43.862;26.176;2023-02-02T07:12:29;100766.91;;;2.56;78.89
33153;BME280;19509;43.862;26.176;2023-02-02T07:14:55;100774.41;;;2.61;78.66
33153;BME280;19509;43.862;26.176;2023-02-02T07:17:21;100784.22;;;2.60;78.89
33153;BME280;19509;43.862;26.176;2023-02-02T07:19:46;100800.25;;;2.69;78.41
33153;BME280;19509;43.862;26.176;2023-02-02T07:22:11;100796.50;;;2.79;77.96
33153;BME280;19509;43.862;26.176;2023-02-02T07:24:37;100794.78;;;2.96;78.28
33153;BME280;19509;43.862;26.176;2023-02-02T07:27:03;100799.13;;;3.23;77.19
33153;BME280;19509;43.862;26.176;2023-02-02T07:29:29;100799.56;;;3.45;76.51
33153;BME280;19509;43.862;26.176;2023-02-02T07:31:54;100802.66;;;3.66;76.58
33153;BME280;19509;43.862;26.176;2023-02-02T07:34:20;100795.84;;;3.72;75.73
33153;BME280;19509;43.862;26.176;2023-02-02T07:36:45;100802.75;;;3.91;75.28
33153;BME280;19509;43.862;26.176;2023-02-02T07:39:11;100808.47;;;4.20;75.04
33153;BME280;19509;43.862;26.176;2023-02-02T07:41:36;100814.19;;;4.42;74.11
33153;BME280;19509;43.862;26.176;2023-02-02T07:44:03;100805.16;;;4.35;74.13
33153;BME280;19509;43.862;26.176;2023-02-02T07:46:29;100816.69;;;4.35;74.13
33153;BME280;19509;43.862;26.176;2023-02-02T07:48:55;100829.69;;;4.38;74.16
33153;BME280;19509;43.862;26.176;2023-02-02T07:51:22;100828.34;;;4.50;74.16
33153;BME280;19509;43.862;26.176;2023-02-02T07:53:50;100826.22;;;4.62;73.47
33153;BME280;19509;43.862;26.176;2023-02-02T07:56:21;100827.34;;;4.43;73.54
33153;BME280;19509;43.862;26.176;2023-02-02T07:58:47;100812.00;;;4.29;73.68
33153;BME280;19509;43.862;26.176;2023-02-02T08:01:14;100818.47;;;4.18;74.06
33153;BME280;19509;43.862;26.176;2023-02-02T08:03:41;100826.66;;;4.25;74.94
33153;BME280;19509;43.862;26.176;2023-02-02T08:06:24;100818.00;;;4.47;74.32
33153;BME280;19509;43.862;26.176;2023-02-02T08:08:50;100810.03;;;4.39;73.03
33153;BME280;19509;43.862;26.176;2023-02-02T08:11:18;100810.19;;;4.46;74.51
33153;BME280;19509;43.862;26.176;2023-02-02T08:13:48;100799.03;;;4.50;73.95
33153;BME280;19509;43.862;26.176;2023-02-02T08:16:14;100782.22;;;4.66;74.13
33153;BME280;19509;43.862;26.176;2023-02-02T08:18:39;100766.53;;;4.71;74.02
33153;BME280;19509;43.862;26.176;2023-02-02T08:21:06;100782.56;;;4.80;74.01
33153;BME280;19509;43.862;26.176;2023-02-02T08:23:33;100777.72;;;4.83;73.27
33153;BME280;19509;43.862;26.176;2023-02-02T08:28:38;100780.03;;;4.86;73.33
33153;BME280;19509;43.862;26.176;2023-02-02T08:31:09;100777.53;;;4.93;73.57
33153;BME280;19509;43.862;26.176;2023-02-02T08:33:35;100770.03;;;4.96;72.89
33153;BME280;19509;43.862;26.176;2023-02-02T08:36:02;100764.50;;;5.06;73.01
33153;BME280;19509;43.862;26.176;2023-02-02T08:38:27;100757.78;;;5.18;72.59
33153;BME280;19509;43.862;26.176;2023-02-02T08:40:53;100760.47;;;5.18;72.16
33153;BME280;19509;43.862;26.176;2023-02-02T08:43:18;100763.28;;;5.33;71.94
33153;BME280;19509;43.862;26.176;2023-02-02T08:45:44;100752.72;;;5.40;71.66
33153;BME280;19509;43.862;26.176;2023-02-02T08:48:09;100758.81;;;5.57;72.49
33153;BME280;19509;43.862;26.176;2023-02-02T08:50:35;100761.06;;;5.84;72.93
33153;BME280;19509;43.862;26.176;2023-02-02T08:53:00;100755.69;;;5.92;72.16
33153;BME280;19509;43.862;26.176;2023-02-02T08:55:25;100751.22;;;5.77;70.28
33153;BME280;19509;43.862;26.176;2023-02-02T08:57:51;100763.34;;;5.56;71.19
33153;BME280;19509;43.862;26.176;2023-02-02T09:00:17;100760.16;;;5.61;71.08
33153;BME280;19509;43.862;26.176;2023-02-02T09:02:43;100751.44;;;5.67;70.09
33153;BME280;19509;43.862;26.176;2023-02-02T09:05:08;100761.44;;;5.73;70.74
33153;BME280;19509;43.862;26.176;2023-02-02T09:07:34;100760.69;;;5.87;70.17
33153;BME280;19509;43.862;26.176;2023-02-02T09:09:59;100771.31;;;6.04;70.20
33153;BME280;19509;43.862;26.176;2023-02-02T09:12:25;100759.44;;;6.06;69.29
33153;BME280;19509;43.862;26.176;2023-02-02T09:14:50;100776.38;;;5.99;68.96
33153;BME280;19509;43.862;26.176;2023-02-02T09:17:16;100763.78;;;6.07;69.95
33153;BME280;19509;43.862;26.176;2023-02-02T09:19:41;100770.47;;;6.03;69.17
33153;BME280;19509;43.862;26.176;2023-02-02T09:22:07;100770.53;;;5.95;69.08
33153;BME280;19509;43.862;26.176;2023-02-02T09:24:32;100774.88;;;5.96;70.84
33153;BME280;19509;43.862;26.176;2023-02-02T09:26:58;100779.16;;;6.05;70.26
33153;BME280;19509;43.862;26.176;2023-02-02T09:29:23;100781.50;;;6.08;70.21
33153;BME280;19509;43.862;26.176;2023-02-02T09:31:48;100775.88;;;5.95;70.74
33153;BME280;19509;43.862;26.176;2023-02-02T09:34:14;100780.13;;;5.73;70.64
33153;BME280;19509;43.862;26.176;2023-02-02T09:36:41;100781.13;;;5.72;71.31
33153;BME280;19509;43.862;26.176;2023-02-02T09:39:09;100771.94;;;5.75;70.95
33153;BME280;19509;43.862;26.176;2023-02-02T09:49:22;100735.66;;;5.88;71.68
33153;BME280;19509;43.862;26.176;2023-02-02T09:51:55;100726.78;;;5.96;70.63
33153;BME280;19509;43.862;26.176;2023-02-02T09:54:42;100735.22;;;6.08;70.78
33153;BME280;19509;43.862;26.176;2023-02-02T09:57:22;100717.09;;;6.18;70.44
33153;BME280;19509;43.862;26.176;2023-02-02T09:59:51;100705.78;;;6.39;69.44
33153;BME280;19509;43.862;26.176;2023-02-02T10:02:25;100714.28;;;6.57;69.53
33153;BME280;19509;43.862;26.176;2023-02-02T10:04:59;100710.91;;;6.63;69.51
33153;BME280;19509;43.862;26.176;2023-02-02T10:07:46;100709.88;;;6.64;69.78
33153;BME280;19509;43.862;26.176;2023-02-02T10:10:18;100699.69;;;6.83;69.48
33153;BME280;19509;43.862;26.176;2023-02-02T10:12:58;100703.16;;;7.13;69.36
33153;BME280;19509;43.862;26.176;2023-02-02T10:18:03;100697.81;;;7.28;66.99
33153;BME280;19509;43.862;26.176;2023-02-02T10:21:09;100679.59;;;7.53;67.61
33153;BME280;19509;43.862;26.176;2023-02-02T10:23:43;100669.41;;;7.63;67.10
33153;BME280;19509;43.862;26.176;2023-02-02T10:31:34;100653.94;;;7.80;67.20
33153;BME280;19509;43.862;26.176;2023-02-02T10:36:55;100658.38;;;7.73;64.53
33153;BME280;19509;43.862;26.176;2023-02-02T10:44:50;100650.50;;;7.86;61.98
33153;BME280;19509;43.862;26.176;2023-02-02T10:47:29;100651.63;;;7.77;62.20
33153;BME280;19509;43.862;26.176;2023-02-02T10:50:09;100637.31;;;7.85;61.76
33153;BME280;19509;43.862;26.176;2023-02-02T10:52:45;100627.34;;;7.78;59.48
33153;BME280;19509;43.862;26.176;2023-02-02T10:55:30;100622.44;;;7.82;61.39
33153;BME280;19509;43.862;26.176;2023-02-02T11:00:48;100635.03;;;8.10;61.03
33153;BME280;19509;43.862;26.176;2023-02-02T11:03:16;100630.00;;;8.00;60.54
33153;BME280;19509;43.862;26.176;2023-02-02T11:05:44;100628.88;;;8.09;61.11
33153;BME280;19509;43.862;26.176;2023-02-02T11:08:34;100619.22;;;7.93;59.88
33153;BME280;19509;43.862;26.176;2023-02-02T11:11:22;100624.41;;;7.73;59.09
33153;BME280;19509;43.862;26.176;2023-02-02T11:16:42;100614.28;;;7.54;59.54
33153;BME280;19509;43.862;26.176;2023-02-02T11:21:55;100623.13;;;7.69;59.47
33153;BME280;19509;43.862;26.176;2023-02-02T11:24:30;100618.66;;;7.76;58.59
33153;BME280;19509;43.862;26.176;2023-02-02T11:32:29;100600.13;;;7.39;60.50
33153;BME280;19509;43.862;26.176;2023-02-02T11:35:26;100586.59;;;7.25;60.47
33153;BME280;19509;43.862;26.176;2023-02-02T11:38:13;100586.81;;;7.09;61.46
33153;BME280;19509;43.862;26.176;2023-02-02T11:40:44;100599.84;;;6.97;62.95
33153;BME280;19509;43.862;26.176;2023-02-02T11:43:22;100596.06;;;6.92;62.94
33153;BME280;19509;43.862;26.176;2023-02-02T11:46:16;100586.03;;;6.94;62.95
33153;BME280;19509;43.862;26.176;2023-02-02T11:49:03;100583.81;;;6.97;63.70
33153;BME280;19509;43.862;26.176;2023-02-02T11:51:30;100576.50;;;6.91;62.84
33153;BME280;19509;43.862;26.176;2023-02-02T11:54:29;100578.16;;;6.92;63.01
33153;BME280;19509;43.862;26.176;2023-02-02T11:56:59;100574.75;;;6.98;62.79
33153;BME280;19509;43.862;26.176;2023-02-02T11:59:46;100570.22;;;6.99;63.11
33153;BME280;19509;43.862;26.176;2023-02-02T12:04:38;100574.09;;;6.96;60.83
33153;BME280;19509;43.862;26.176;2023-02-02T12:07:18;100574.75;;;6.98;61.69
33153;BME280;19509;43.862;26.176;2023-02-02T12:09:46;100559.28;;;6.94;61.54
33153;BME280;19509;43.862;26.176;2023-02-02T12:13:04;100570.44;;;6.97;61.62
33153;BME280;19509;43.862;26.176;2023-02-02T12:21:07;100572.38;;;6.88;62.50
33153;BME280;19509;43.862;26.176;2023-02-02T12:26:39;100559.94;;;6.66;62.93
33153;BME280;19509;43.862;26.176;2023-02-02T12:40:38;100593.91;;;6.28;63.96
33153;BME280;19509;43.862;26.176;2023-02-02T12:54:04;100608.03;;;5.53;70.52
33153;BME280;19509;43.862;26.176;2023-02-02T13:08:11;100597.84;;;5.25;74.88
33153;BME280;19509;43.862;26.176;2023-02-02T13:10:52;100595.84;;;5.27;74.51
33153;BME280;19509;43.862;26.176;2023-02-02T13:13:22;100586.97;;;5.35;75.17
33153;BME280;19509;43.862;26.176;2023-02-02T13:15:57;100582.16;;;5.30;74.80
33153;BME280;19509;43.862;26.176;2023-02-02T13:21:12;100589.81;;;5.33;74.59
33153;BME280;19509;43.862;26.176;2023-02-02T13:23:52;100581.97;;;5.32;75.00
33153;BME280;19509;43.862;26.176;2023-02-02T13:26:25;100583.75;;;5.39;74.54
33153;BME280;19509;43.862;26.176;2023-02-02T13:29:04;100577.91;;;5.44;75.15
33153;BME280;19509;43.862;26.176;2023-02-02T13:31:50;100580.09;;;5.40;75.08
33153;BME280;19509;43.862;26.176;2023-02-02T13:34:37;100595.78;;;5.35;75.08
33153;BME280;19509;43.862;26.176;2023-02-02T13:37:15;100583.00;;;5.31;75.60
33153;BME280;19509;43.862;26.176;2023-02-02T13:39:47;100590.88;;;5.24;74.96
33153;BME280;19509;43.862;26.176;2023-02-02T13:42:36;100586.22;;;5.18;75.92
33153;BME280;19509;43.862;26.176;2023-02-02T13:45:23;100591.25;;;5.13;75.94
33153;BME280;19509;43.862;26.176;2023-02-02T13:48:48;100602.16;;;5.03;76.56
33153;BME280;19509;43.862;26.176;2023-02-02T13:51:04;100589.66;;;4.95;76.46
33153;BME280;19509;43.862;26.176;2023-02-02T13:53:41;100606.66;;;4.94;76.90
33153;BME280;19509;43.862;26.176;2023-02-02T14:01:51;100612.69;;;4.96;77.42
33153;BME280;19509;43.862;26.176;2023-02-02T14:04:27;100605.50;;;4.89;77.69
33153;BME280;19509;43.862;26.176;2023-02-02T14:07:03;100601.88;;;4.82;78.22
33153;BME280;19509;43.862;26.176;2023-02-02T14:09:34;100607.56;;;4.79;77.81
33153;BME280;19509;43.862;26.176;2023-02-02T14:12:04;100606.09;;;4.76;77.52
33153;BME280;19509;43.862;26.176;2023-02-02T14:14:32;100609.91;;;4.73;77.63
33153;BME280;19509;43.862;26.176;2023-02-02T14:22:17;100598.63;;;4.63;78.16
33153;BME280;19509;43.862;26.176;2023-02-02T14:24:45;100605.13;;;4.61;78.47
33153;BME280;19509;43.862;26.176;2023-02-02T14:42:38;100623.13;;;4.50;78.96
33153;BME280;19509;43.862;26.176;2023-02-02T14:45:31;100629.97;;;4.45;79.21
33153;BME280;19509;43.862;26.176;2023-02-02T14:56:14;100634.84;;;4.25;79.37
33153;BME280;19509;43.862;26.176;2023-02-02T14:58:51;100626.69;;;4.10;79.62
33153;BME280;19509;43.862;26.176;2023-02-02T15:06:29;100649.31;;;3.90;80.32
33153;BME280;19509;43.862;26.176;2023-02-02T15:17:43;100653.28;;;3.69;81.74
33153;BME280;19509;43.862;26.176;2023-02-02T15:23:06;100659.59;;;3.60;82.33
33153;BME280;19509;43.862;26.176;2023-02-02T15:25:55;100667.22;;;3.55;82.63
33153;BME280;19509;43.862;26.176;2023-02-02T15:28:24;100664.56;;;3.47;83.22
33153;BME280;19509;43.862;26.176;2023-02-02T15:33:48;100661.22;;;3.45;83.45
33153;BME280;19509;43.862;26.176;2023-02-02T15:36:21;100667.34;;;3.37;83.47
33153;BME280;19509;43.862;26.176;2023-02-02T15:38:52;100669.31;;;3.35;83.88
33153;BME280;19509;43.862;26.176;2023-02-02T15:41:19;100671.66;;;3.30;84.00
33153;BME280;19509;43.862;26.176;2023-02-02T15:43:45;100674.94;;;3.24;84.27
33153;BME280;19509;43.862;26.176;2023-02-02T15:46:14;100664.31;;;3.24;84.50
33153;BME280;19509;43.862;26.176;2023-02-02T15:49:14;100682.03;;;3.15;85.25
33153;BME280;19509;43.862;26.176;2023-02-02T15:51:51;100685.03;;;3.12;85.09
33153;BME280;19509;43.862;26.176;2023-02-02T15:54:27;100704.81;;;3.10;85.31